createdAt,value
2018-02-21T00:00:49.249Z,47.67
2018-02-21T00:03:16.553Z,55.47
2018-02-21T00:05:44.713Z,52.30
2018-02-21T00:08:12.071Z,57.77
2018-02-21T00:10:39.428Z,59.77
2018-02-21T00:13:06.826Z,54.00
2018-02-21T00:15:34.792Z,54.23
2018-02-21T00:18:02.167Z,53.90
2018-02-21T00:20:29.558Z,57.63
2018-02-21T00:22:56.909Z,50.23
2018-02-21T00:25:24.298Z,55.43
2018-02-21T00:27:51.656Z,51.27
2018-02-21T00:30:19.050Z,53.03
2018-02-21T00:32:46.458Z,52.83
2018-02-21T00:35:13.816Z,65.30
2018-02-21T00:37:41.168Z,55.57
2018-02-21T00:40:09.554Z,54.13
2018-02-21T00:42:36.909Z,54.70
2018-02-21T00:45:04.360Z,56.77
2018-02-21T00:47:31.718Z,58.20
2018-02-21T00:49:59.073Z,53.33
2018-02-21T00:52:26.452Z,51.77
2018-02-21T00:54:53.820Z,59.60
2018-02-21T00:57:21.219Z,57.97
2018-02-21T00:59:48.579Z,56.70
2018-02-21T01:02:15.979Z,52.43
2018-02-21T01:04:43.337Z,54.10
2018-02-21T01:07:10.748Z,53.73
2018-02-21T01:09:38.112Z,54.80
2018-02-21T01:12:05.486Z,56.53
2018-02-21T01:14:32.897Z,49.70
2018-02-21T01:17:00.293Z,58.67
2018-02-21T01:19:27.646Z,58.17
2018-02-21T01:21:55.013Z,49.50
2018-02-21T01:24:22.397Z,54.60
2018-02-21T01:26:49.782Z,52.67
2018-02-21T01:29:17.181Z,51.13
2018-02-21T01:31:44.538Z,54.53
2018-02-21T01:34:11.902Z,58.63
2018-02-21T01:36:39.296Z,50.07
2018-02-21T01:39:06.658Z,49.17
2018-02-21T01:41:34.056Z,57.23
2018-02-21T01:44:01.442Z,57.23
2018-02-21T01:46:28.850Z,58.90
2018-02-21T01:48:56.237Z,55.20
2018-02-21T01:51:23.597Z,61.00
2018-02-21T01:53:51.000Z,54.97
2018-02-21T01:56:18.357Z,57.93
2018-02-21T01:58:45.741Z,59.03
2018-02-21T02:01:13.112Z,56.17
2018-02-21T02:03:40.530Z,57.00
2018-02-21T02:06:07.882Z,52.27
2018-02-21T02:08:35.241Z,52.30
2018-02-21T02:11:02.649Z,54.40
2018-02-21T02:13:30.007Z,50.57
2018-02-21T02:15:57.365Z,57.47
2018-02-21T02:18:24.757Z,52.13
2018-02-21T02:20:52.121Z,52.07
2018-02-21T02:23:19.517Z,60.57
2018-02-21T02:25:46.896Z,55.00
2018-02-21T02:28:14.248Z,55.33
2018-02-21T02:30:41.661Z,59.80
2018-02-21T02:33:09.066Z,53.00
2018-02-21T02:35:36.422Z,55.53
2018-02-21T02:38:03.782Z,60.73
2018-02-21T02:40:31.193Z,56.93
2018-02-21T02:42:58.548Z,63.37
2018-02-21T02:45:25.912Z,56.13
2018-02-21T02:47:53.318Z,59.87
2018-02-21T02:50:20.706Z,69.07
2018-02-21T02:52:48.084Z,66.43
2018-02-21T02:55:15.486Z,49.70
2018-02-21T02:57:42.850Z,61.07
2018-02-21T03:00:10.207Z,50.97
2018-02-21T03:02:37.614Z,61.23
2018-02-21T03:05:04.974Z,59.47
2018-02-21T03:07:32.364Z,56.90
2018-02-21T03:09:59.735Z,59.33
2018-02-21T03:12:27.124Z,68.40
2018-02-21T03:14:54.547Z,61.23
2018-02-21T03:17:21.901Z,66.30
2018-02-21T03:19:49.285Z,68.10
2018-02-21T03:22:16.674Z,61.80
2018-02-21T03:24:44.073Z,61.97
2018-02-21T03:27:11.440Z,56.63
2018-02-21T03:29:38.801Z,56.07
2018-02-21T03:32:06.184Z,62.47
2018-02-21T03:34:33.538Z,66.73
2018-02-21T03:37:00.929Z,58.73
2018-02-21T03:39:28.321Z,67.40
2018-02-21T03:41:55.720Z,72.37
2018-02-21T03:44:23.077Z,62.13
2018-02-21T03:46:50.432Z,57.43
2018-02-21T03:49:17.829Z,69.63
2018-02-21T03:51:45.191Z,67.67
2018-02-21T03:54:12.579Z,63.10
2018-02-21T03:56:39.978Z,62.67
2018-02-21T03:59:07.342Z,69.03
2018-02-21T04:01:34.777Z,62.20
2018-02-21T04:04:02.178Z,61.07
2018-02-21T04:06:29.562Z,62.57
2018-02-21T04:08:56.956Z,69.80
2018-02-21T04:11:24.313Z,61.13
2018-02-21T04:13:51.681Z,69.30
2018-02-21T04:16:19.082Z,65.13
2018-02-21T04:18:46.433Z,58.97
2018-02-21T04:21:14.042Z,67.20
2018-02-21T04:23:41.439Z,67.30
2018-02-21T04:26:08.837Z,64.67
2018-02-21T04:28:36.193Z,67.07
2018-02-21T04:31:03.553Z,59.50
2018-02-21T04:33:30.942Z,62.33
2018-02-21T04:35:58.297Z,63.57
2018-02-21T04:38:25.709Z,67.07
2018-02-21T04:40:53.066Z,66.40
2018-02-21T04:43:20.449Z,67.90
2018-02-21T04:45:47.856Z,62.13
2018-02-21T04:48:15.245Z,61.60
2018-02-21T04:50:42.605Z,53.83
2018-02-21T04:53:09.993Z,61.97
2018-02-21T04:55:52.045Z,66.13
2018-02-21T04:58:39.150Z,62.80
2018-02-21T05:01:06.566Z,66.17
2018-02-21T05:03:33.989Z,62.17
2018-02-21T05:06:01.381Z,63.87
2018-02-21T05:08:28.745Z,65.07
2018-02-21T05:10:56.150Z,66.83
2018-02-21T05:13:23.529Z,60.43
2018-02-21T05:15:50.881Z,60.77
2018-02-21T05:18:18.270Z,66.90
2018-02-21T05:20:45.676Z,62.90
2018-02-21T05:23:13.030Z,60.10
2018-02-21T05:25:40.430Z,62.00
2018-02-21T05:28:07.821Z,69.13
2018-02-21T05:30:35.180Z,61.70
2018-02-21T05:33:02.576Z,60.00
2018-02-21T05:35:29.945Z,61.67
2018-02-21T05:37:57.352Z,57.00
2018-02-21T05:40:24.717Z,67.13
2018-02-21T05:42:52.092Z,65.23
2018-02-21T05:45:19.486Z,61.30
2018-02-21T05:47:46.857Z,60.13
2018-02-21T05:50:14.250Z,54.93
2018-02-21T05:52:41.605Z,52.77
2018-02-21T05:55:08.967Z,63.30
2018-02-21T05:57:36.357Z,61.63
2018-02-21T06:00:03.760Z,57.10
2018-02-21T06:02:31.126Z,57.73
2018-02-21T06:04:58.485Z,60.77
2018-02-21T06:07:25.877Z,64.07
2018-02-21T06:09:53.229Z,62.97
2018-02-21T06:12:20.586Z,62.87
2018-02-21T06:14:47.993Z,61.63
2018-02-21T06:17:15.362Z,58.90
2018-02-21T06:19:42.721Z,52.80
2018-02-21T06:22:10.115Z,61.47
2018-02-21T06:24:37.478Z,60.80
2018-02-21T06:27:04.834Z,61.53
2018-02-21T06:29:32.225Z,58.20
2018-02-21T06:31:59.581Z,60.07
2018-02-21T06:34:26.971Z,51.93
2018-02-21T06:36:54.333Z,61.83
2018-02-21T06:39:21.709Z,58.67
2018-02-21T06:41:49.127Z,62.80
2018-02-21T06:44:16.497Z,61.50
2018-02-21T06:46:43.853Z,60.40
2018-02-21T06:49:11.257Z,68.40
2018-02-21T06:51:38.612Z,60.20
2018-02-21T06:54:05.973Z,65.43
2018-02-21T06:56:33.373Z,57.47
2018-02-21T06:59:00.737Z,59.63
2018-02-21T07:01:28.102Z,64.13
2018-02-21T07:03:55.527Z,63.90
2018-02-21T07:06:22.898Z,56.50
2018-02-21T07:08:50.253Z,60.87
2018-02-21T07:11:17.662Z,75.13
2018-02-21T07:13:45.022Z,62.07
2018-02-21T07:16:12.387Z,62.30
2018-02-21T07:18:39.799Z,63.67
2018-02-21T07:21:07.156Z,54.07
2018-02-21T07:23:34.518Z,58.93
2018-02-21T07:26:01.894Z,65.63
2018-02-21T07:28:29.309Z,51.50
2018-02-21T07:30:56.720Z,59.50
2018-02-21T07:33:24.084Z,68.83
2018-02-21T07:35:51.468Z,65.37
2018-02-21T07:38:18.825Z,59.80
2018-02-21T07:40:46.185Z,59.80
2018-02-21T07:43:13.566Z,54.03
2018-02-21T07:45:40.975Z,59.37
2018-02-21T07:48:08.370Z,63.30
2018-02-21T07:50:35.738Z,59.27
2018-02-21T07:53:03.088Z,60.17
2018-02-21T07:55:30.478Z,55.30
2018-02-21T07:57:57.837Z,58.07
2018-02-21T08:00:25.222Z,63.00
2018-02-21T08:02:52.618Z,62.20
2018-02-21T08:05:19.982Z,59.67
2018-02-21T08:07:47.337Z,64.60
2018-02-21T08:10:14.729Z,51.67
2018-02-21T08:12:42.085Z,62.83
2018-02-21T08:15:09.437Z,60.27
2018-02-21T08:17:36.820Z,56.00
2018-02-21T08:20:04.181Z,57.77
2018-02-21T08:22:31.554Z,62.20
2018-02-21T08:24:58.949Z,56.17
2018-02-21T08:27:26.305Z,55.67
2018-02-21T08:29:53.661Z,56.97
2018-02-21T08:32:21.054Z,57.43
2018-02-21T08:34:48.416Z,61.20
2018-02-21T08:37:15.787Z,51.10
2018-02-21T08:39:43.169Z,58.47
2018-02-21T08:42:10.528Z,53.70
2018-02-21T08:44:37.914Z,61.47
2018-02-21T08:47:05.964Z,57.83
2018-02-21T08:49:33.324Z,53.27
2018-02-21T08:52:00.738Z,46.93
2018-02-21T08:54:28.112Z,56.50
2018-02-21T08:56:55.465Z,50.63
2018-02-21T08:59:22.866Z,55.07
2018-02-21T09:01:50.226Z,53.03
2018-02-21T09:04:17.606Z,49.47
2018-02-21T09:06:44.989Z,52.17
2018-02-21T09:09:12.349Z,58.83
2018-02-21T09:11:39.706Z,57.20
2018-02-21T09:14:07.125Z,57.23
2018-02-21T09:16:34.617Z,49.83
2018-02-21T09:19:01.965Z,54.93
2018-02-21T09:21:29.357Z,50.83
2018-02-21T09:23:56.718Z,61.10
2018-02-21T09:26:24.086Z,50.57
2018-02-21T09:28:51.481Z,52.57
2018-02-21T09:31:18.865Z,52.03
2018-02-21T09:33:46.382Z,47.70
2018-02-21T09:36:13.775Z,52.00
2018-02-21T09:38:41.150Z,46.17
2018-02-21T09:41:08.508Z,50.10
2018-02-21T09:43:35.925Z,54.63
2018-02-21T09:46:03.314Z,49.57
2018-02-21T09:48:30.682Z,49.10
2018-02-21T09:50:58.050Z,50.60
2018-02-21T09:53:25.453Z,43.77
2018-02-21T09:55:52.817Z,50.17
2018-02-21T09:58:20.181Z,50.90
2018-02-21T10:00:47.590Z,44.63
2018-02-21T10:03:14.943Z,45.37
2018-02-21T10:05:42.334Z,39.30
2018-02-21T10:08:09.684Z,40.83
2018-02-21T10:10:37.096Z,43.27
2018-02-21T10:13:04.480Z,38.07
2018-02-21T10:15:31.871Z,36.33
2018-02-21T10:17:59.231Z,39.70
2018-02-21T10:20:26.591Z,41.07
2018-02-21T10:22:53.979Z,45.67
2018-02-21T10:25:21.361Z,37.07
2018-02-21T10:27:48.750Z,43.53
2018-02-21T10:30:16.129Z,37.40
2018-02-21T10:32:43.486Z,36.30
2018-02-21T10:35:10.877Z,38.30
2018-02-21T10:37:38.285Z,34.50
2018-02-21T10:40:05.646Z,38.20
2018-02-21T10:42:33.006Z,40.17
2018-02-21T10:45:00.500Z,39.70
2018-02-21T10:47:27.869Z,38.97
2018-02-21T10:49:55.229Z,38.73
2018-02-21T10:52:22.642Z,37.17
2018-02-21T10:54:50.027Z,36.73
2018-02-21T10:57:17.391Z,35.70
2018-02-21T10:59:44.784Z,40.60
2018-02-21T11:02:12.150Z,31.35
2018-02-21T11:04:39.548Z,30.77
2018-02-21T11:07:06.906Z,32.23
2018-02-21T11:09:34.270Z,27.07
2018-02-21T11:12:01.683Z,29.63
2018-02-21T11:14:29.049Z,24.73
2018-02-21T11:16:56.528Z,26.90
2018-02-21T11:19:23.934Z,23.30
2018-02-21T11:21:51.289Z,24.17
2018-02-21T11:24:18.786Z,28.20
2018-02-21T11:26:46.156Z,21.87
2018-02-21T11:29:13.562Z,21.70
2018-02-21T11:31:40.958Z,26.23
2018-02-21T11:34:08.317Z,28.53
2018-02-21T11:36:35.697Z,25.73
2018-02-21T11:39:03.097Z,21.57
2018-02-21T11:43:57.233Z,20.90
2018-02-21T11:46:24.619Z,19.60
2018-02-21T11:48:51.966Z,18.63
2018-02-21T11:51:19.317Z,18.57
2018-02-21T11:53:46.701Z,16.73
2018-02-21T11:56:14.097Z,21.10
2018-02-21T12:01:08.250Z,17.67
2018-02-21T12:03:35.608Z,16.20
2018-02-21T12:06:03.013Z,21.77
2018-02-21T12:08:30.366Z,19.00
2018-02-21T12:10:57.724Z,18.07
2018-02-21T12:13:25.106Z,18.07
2018-02-21T12:15:52.458Z,16.60
2018-02-21T12:18:19.813Z,18.13
2018-02-21T12:20:47.215Z,14.60
2018-02-21T12:23:14.598Z,15.13
2018-02-21T12:25:41.980Z,11.50
2018-02-21T12:28:09.339Z,17.93
2018-02-21T12:30:36.690Z,14.10
2018-02-21T12:33:04.093Z,13.00
2018-02-21T12:35:31.445Z,19.23
2018-02-21T12:37:58.801Z,16.03
2018-02-21T12:40:31.955Z,14.83
2018-02-21T12:42:59.317Z,15.57
2018-02-21T12:45:26.669Z,15.00
2018-02-21T12:47:54.068Z,13.20
2018-02-21T12:50:21.430Z,15.60
2018-02-21T12:52:48.779Z,16.00
2018-02-21T12:55:16.175Z,18.80
2018-02-21T12:57:43.526Z,14.73
2018-02-21T13:00:10.920Z,14.07
2018-02-21T13:02:38.301Z,16.37
2018-02-21T13:05:05.650Z,12.97
2018-02-21T13:07:33.032Z,12.90
2018-02-21T13:10:00.391Z,12.03
2018-02-21T13:12:27.750Z,12.20
2018-02-21T13:14:55.161Z,15.63
2018-02-21T13:17:22.541Z,13.23
2018-02-21T13:19:49.884Z,14.00
2018-02-21T13:22:17.281Z,13.13
2018-02-21T13:24:44.629Z,14.17
2018-02-21T13:27:11.978Z,15.40
2018-02-21T13:29:39.379Z,18.47
2018-02-21T13:32:06.789Z,16.90
2018-02-21T13:34:34.141Z,17.93
2018-02-21T13:37:01.527Z,18.40
2018-02-21T13:39:28.926Z,19.70
2018-02-21T13:41:56.293Z,16.73
2018-02-21T13:44:23.657Z,18.70
2018-02-21T13:46:51.037Z,18.33
2018-02-21T13:49:18.386Z,18.00
2018-02-21T13:51:45.774Z,16.90
2018-02-21T13:54:13.133Z,21.50
2018-02-21T13:56:40.489Z,19.03
2018-02-21T13:59:07.890Z,19.57
2018-02-21T14:01:35.242Z,18.05
2018-02-21T14:04:02.601Z,22.15
2018-02-21T14:06:30.001Z,21.80
2018-02-21T14:08:57.357Z,20.45
2018-02-21T14:11:24.726Z,19.80
2018-02-21T14:13:52.119Z,21.05
2018-02-21T14:16:19.478Z,20.20
2018-02-21T14:18:46.855Z,19.40
2018-02-21T14:21:14.249Z,18.97
2018-02-21T14:23:41.633Z,18.23
2018-02-21T14:26:09.046Z,20.53
2018-02-21T14:28:36.402Z,22.83
2018-02-21T14:31:03.766Z,21.20
2018-02-21T14:33:31.161Z,19.60
2018-02-21T14:35:58.533Z,24.77
2018-02-21T14:38:25.922Z,19.43
2018-02-21T14:40:53.370Z,21.80
2018-02-21T14:43:20.737Z,17.87
2018-02-21T14:45:48.112Z,22.17
2018-02-21T14:48:15.497Z,22.57
2018-02-21T14:50:42.911Z,20.80
2018-02-21T14:53:10.298Z,20.20
2018-02-21T14:55:37.653Z,18.67
2018-02-21T14:58:05.056Z,20.77
2018-02-21T15:00:32.413Z,20.80
2018-02-21T15:02:59.786Z,18.23
2018-02-21T15:05:27.176Z,19.20
2018-02-21T15:07:54.594Z,23.23
2018-02-21T15:10:21.985Z,22.53
2018-02-21T15:12:49.344Z,22.40
2018-02-21T15:15:16.738Z,22.67
2018-02-21T15:17:44.124Z,22.37
2018-02-21T15:20:11.533Z,23.90
2018-02-21T15:22:38.889Z,24.23
2018-02-21T15:25:06.261Z,25.30
2018-02-21T15:27:33.661Z,25.70
2018-02-21T15:30:01.026Z,28.13
2018-02-21T15:32:28.390Z,33.40
2018-02-21T15:34:55.790Z,28.40
2018-02-21T15:37:23.150Z,33.65
2018-02-21T15:39:50.505Z,26.70
2018-02-21T15:42:17.890Z,24.30
2018-02-21T15:44:45.246Z,29.83
2018-02-21T15:47:12.630Z,29.80
2018-02-21T15:49:40.049Z,27.07
2018-02-21T15:52:07.406Z,27.40
2018-02-21T15:54:34.818Z,28.45
2018-02-21T15:57:02.221Z,27.90
2018-02-21T15:59:29.577Z,32.13
2018-02-21T16:01:56.929Z,27.13
2018-02-21T16:04:24.445Z,27.93
2018-02-21T16:06:51.816Z,27.80
2018-02-21T16:09:19.177Z,28.20
2018-02-21T16:11:46.578Z,29.27
2018-02-21T16:14:13.957Z,32.40
2018-02-21T16:16:41.308Z,27.57
2018-02-21T16:19:08.779Z,32.80
2018-02-21T16:21:36.138Z,25.10
2018-02-21T16:24:03.577Z,27.80
2018-02-21T16:26:31.037Z,28.87
2018-02-21T16:28:58.403Z,30.03
2018-02-21T16:31:25.821Z,27.80
2018-02-21T16:33:53.176Z,30.20
2018-02-21T16:36:20.541Z,27.63
2018-02-21T16:38:47.949Z,29.57
2018-02-21T16:41:15.304Z,27.17
2018-02-21T16:43:42.669Z,29.07
2018-02-21T16:46:10.067Z,28.83
2018-02-21T16:48:37.427Z,29.13
2018-02-21T16:51:04.785Z,28.47
2018-02-21T16:53:32.178Z,28.30
2018-02-21T16:55:59.534Z,29.03
2018-02-21T16:58:26.909Z,28.50
2018-02-21T17:00:54.317Z,32.83
2018-02-21T17:03:21.695Z,29.73
2018-02-21T17:05:49.053Z,28.60
2018-02-21T17:08:16.433Z,26.97
2018-02-21T17:10:43.789Z,28.67
2018-02-21T17:13:11.190Z,31.47
2018-02-21T17:15:38.579Z,30.47
2018-02-21T17:18:05.945Z,30.37
2018-02-21T17:20:33.885Z,25.33
2018-02-21T17:23:01.241Z,31.70
2018-02-21T17:25:28.598Z,33.00
2018-02-21T17:27:56.010Z,28.50
2018-02-21T17:30:23.406Z,29.13
2018-02-21T17:32:50.762Z,28.57
2018-02-21T17:35:18.162Z,29.60
2018-02-21T17:37:45.553Z,32.13
2018-02-21T17:40:12.949Z,32.83
2018-02-21T17:42:40.317Z,31.70
2018-02-21T17:45:07.753Z,34.20
2018-02-21T17:47:35.180Z,27.17
2018-02-21T17:50:02.546Z,29.57
2018-02-21T17:52:29.896Z,35.93
2018-02-21T17:54:57.325Z,28.63
2018-02-21T17:57:24.728Z,32.47
2018-02-21T17:59:52.066Z,33.00
2018-02-21T18:02:19.458Z,35.87
2018-02-21T18:04:46.829Z,36.17
2018-02-21T18:07:14.188Z,35.77
2018-02-21T18:09:41.592Z,39.93
2018-02-21T18:12:08.949Z,35.90
2018-02-21T18:14:36.320Z,35.60
2018-02-21T18:17:03.741Z,34.70
2018-02-21T18:19:31.101Z,41.70
2018-02-21T18:21:58.541Z,37.80
2018-02-21T18:24:25.937Z,36.60
2018-02-21T18:26:53.292Z,40.30
2018-02-21T18:29:20.653Z,35.80
2018-02-21T18:31:48.059Z,39.20
2018-02-21T18:34:15.417Z,36.80
2018-02-21T18:36:42.796Z,34.60
2018-02-21T18:39:10.185Z,34.87
2018-02-21T18:41:37.546Z,34.00
2018-02-21T18:44:04.954Z,39.53
2018-02-21T18:46:32.349Z,36.23
2018-02-21T18:48:59.700Z,39.30
2018-02-21T18:51:27.062Z,35.60
2018-02-21T18:53:54.437Z,36.83
2018-02-21T18:56:21.885Z,39.30
2018-02-21T18:58:49.289Z,35.50
2018-02-21T19:01:16.657Z,37.57
2018-02-21T19:03:44.037Z,43.15
2018-02-21T19:06:11.437Z,35.20
2018-02-21T19:08:38.829Z,38.87
2018-02-21T19:11:06.193Z,39.75
2018-02-21T19:13:33.602Z,33.00
2018-02-21T19:16:00.956Z,35.37
2018-02-21T19:18:28.315Z,32.47
2018-02-21T19:20:55.739Z,41.50
2018-02-21T19:23:23.167Z,38.13
2018-02-21T19:25:50.557Z,42.47
2018-02-21T19:28:17.915Z,50.10
2018-02-21T19:30:45.294Z,41.60
2018-02-21T19:33:12.725Z,40.67
2018-02-21T19:35:40.109Z,40.60
2018-02-21T19:38:07.527Z,49.07
2018-02-21T19:40:34.905Z,41.70
2018-02-21T19:43:02.459Z,42.47
2018-02-21T19:45:29.867Z,46.33
2018-02-21T19:47:57.236Z,47.33
2018-02-21T19:50:24.885Z,47.00
2018-02-21T19:52:52.373Z,42.27
2018-02-21T19:55:19.741Z,49.67
2018-02-21T19:57:47.156Z,44.97
2018-02-21T20:00:14.766Z,43.07
2018-02-21T20:02:42.129Z,46.80
2018-02-21T20:05:09.481Z,47.90
2018-02-21T20:07:37.033Z,56.43
2018-02-21T20:10:04.453Z,60.40
2018-02-21T20:12:31.899Z,64.53
2018-02-21T20:14:59.371Z,51.83
2018-02-21T20:17:27.016Z,54.23
2018-02-21T20:19:54.475Z,52.57
2018-02-21T20:22:21.930Z,62.00
2018-02-21T20:24:49.411Z,48.03
2018-02-21T20:27:16.795Z,54.27
2018-02-21T20:29:44.194Z,43.07
2018-02-21T20:32:11.681Z,43.80
2018-02-21T20:34:39.156Z,45.63
2018-02-21T20:37:07.548Z,44.63
2018-02-21T20:39:34.967Z,44.77
2018-02-21T20:42:02.508Z,44.23
2018-02-21T20:44:30.069Z,45.57
2018-02-21T20:46:57.650Z,39.10
2018-02-21T20:49:25.211Z,39.90
2018-02-21T20:51:52.745Z,43.00
2018-02-21T20:54:20.613Z,41.07
2018-02-21T20:56:48.062Z,38.27
2018-02-21T20:59:15.721Z,36.30
2018-02-21T21:01:42.996Z,36.60
2018-02-21T21:04:10.358Z,41.47
2018-02-21T21:06:37.713Z,37.70
2018-02-21T21:09:05.122Z,39.23
2018-02-21T21:11:32.490Z,38.57
2018-02-21T21:13:59.850Z,36.00
2018-02-21T21:16:27.255Z,30.30
2018-02-21T21:18:54.610Z,33.73
2018-02-21T21:21:21.984Z,33.40
2018-02-21T21:23:49.377Z,31.53
2018-02-21T21:26:16.741Z,28.57
2018-02-21T21:28:44.131Z,37.97
2018-02-21T21:31:11.592Z,34.53
2018-02-21T21:33:38.919Z,34.50
2018-02-21T21:36:06.281Z,28.97
2018-02-21T21:38:33.698Z,28.77
2018-02-21T21:41:01.057Z,29.53
2018-02-21T21:43:28.417Z,29.13
2018-02-21T21:45:55.798Z,29.33
2018-02-21T21:48:23.162Z,29.90
2018-02-21T21:50:50.574Z,27.30
2018-02-21T21:53:17.948Z,24.30
2018-02-21T21:55:45.320Z,28.57
2018-02-21T21:58:12.730Z,24.27
2018-02-21T22:00:40.097Z,27.27
2018-02-21T22:03:07.453Z,29.33
2018-02-21T22:05:35.663Z,28.50
2018-02-21T22:08:03.021Z,30.90
2018-02-21T22:10:30.372Z,26.50
2018-02-21T22:12:57.758Z,28.43
2018-02-21T22:15:25.106Z,31.17
2018-02-21T22:17:52.505Z,23.93
2018-02-21T22:20:19.906Z,25.67
2018-02-21T22:22:47.260Z,25.40
2018-02-21T22:25:14.662Z,28.90
2018-02-21T22:27:42.017Z,28.33
2018-02-21T22:30:09.405Z,25.70
2018-02-21T22:32:36.822Z,27.00
2018-02-21T22:35:04.181Z,22.47
2018-02-21T22:37:31.570Z,22.80
2018-02-21T22:39:58.969Z,27.13
2018-02-21T22:42:26.365Z,27.67
2018-02-21T22:44:53.731Z,26.97
2018-02-21T22:47:21.216Z,29.47
2018-02-21T22:49:48.589Z,27.43
2018-02-21T22:52:15.985Z,28.00
2018-02-21T22:54:43.351Z,26.00
2018-02-21T22:57:10.705Z,26.80
2018-02-21T22:59:38.157Z,27.40
2018-02-21T23:02:05.548Z,28.90
2018-02-21T23:04:32.901Z,23.50
2018-02-21T23:07:00.308Z,24.70
2018-02-21T23:09:27.675Z,25.20
2018-02-21T23:11:55.030Z,28.20
2018-02-21T23:14:22.441Z,24.80
2018-02-21T23:16:49.805Z,28.10
2018-02-21T23:19:17.197Z,28.77
2018-02-21T23:21:44.569Z,30.30
2018-02-21T23:24:11.961Z,28.37
2018-02-21T23:26:39.379Z,29.37
2018-02-21T23:29:06.741Z,25.80
2018-02-21T23:31:34.105Z,32.77
2018-02-21T23:34:01.510Z,26.17
2018-02-21T23:36:28.873Z,31.20
2018-02-21T23:38:56.320Z,32.43
2018-02-21T23:41:23.722Z,31.10
2018-02-21T23:43:51.085Z,32.60
2018-02-21T23:46:18.465Z,34.20
2018-02-21T23:48:45.853Z,35.23
2018-02-21T23:51:13.243Z,32.43
2018-02-21T23:53:40.597Z,31.30
2018-02-21T23:56:07.954Z,33.40
2018-02-21T23:58:35.340Z,33.57
